Valladolid, Spain

11:11 AM CET on January 28, 2015 (GMT +0100)
Plaza San Juan / Valladolid | Change Station
CLOSE
Current Station
Personal Weather Station
Location: Valladolid, CASTILLA Y LEóN
Elevation: 2303 ft
Nearby Weather Stations

Elev 2303 ft 41.65 °N, 4.72 °W | Updated 0 second ago

Mostly Cloudy
Mostly Cloudy
36.5 °F
Feels Like 36 °F
N
0.0
Wind Variable Wind from NE
Gusts 0.0 mph

Today
High -- | Low -- °F
--% Chance of Precip.
Yesterday
High -- | Low -- °F
Precip. -- in
8:35 AM 6:29 PM
Waxing Gibbous, 63% visible
Pressure 30.33 in
Visibility 3.1 miles
Clouds Mostly Cloudy 1700 ft
Windchill 36 °F
Dew Point 32 °F
Humidity 85%
Rainfall 0.00 in
Snow Depth Not available.
UV 1 out of 12
Pollen Not available.
Air Quality Not available.
Flu Activity Not available.
METAR LEVD 281000Z 35003KT 320V020 5000 BR BKN017 02/02 Q1027

More Conditions Fewer Conditions

Pressure 30.33 in
Visibility 3.1 miles
Clouds Mostly Cloudy 1700 ft
Windchill 36 °F
Dew Point 32 °F
Humidity 85%
Rainfall 0.00 in
Snow Depth Not available.
UV 1 out of 12
Pollen Not available.
Air Quality Not available.
Flu Activity Not available.
METAR LEVD 281000Z 35003KT 320V020 5000 BR BKN017 02/02 Q1027

More Conditions Fewer Conditions

10-Day Weather Forecast

Almanac

Astronomy

Jan. 28, 2015 Rise Set
Actual Time
Civil Twilight
Nautical Twilight
Astronomical Twilight
Moon
Length of Visible Light
Length of Day
Tomorrow will be .
, % of the Moon is Illuminated

Today's Extremes

Country Highs Country Lows

Community

WunderPhotos

Upload Photos

1,791,121 photos uploaded!

WunderBlogs® & News

Nearby

Air Quality

  Air Quality AQ Index Pollutant
Not available.

Snow Depth

Station Depth Elevation

Earthquake Activity

City Distance Mag. Time & Date
Minimum magnitude displayed is 2.5.

Coastal Water Temperatures

Place Temperature

Nearby Weather Stations